Time;durP1;ratioP1;P1;durP2;ratioP2;P2;SDS_P1;SDS_P2;PMS_P1;PMS_P2;Temp;Humidity;BMP_temperature;BMP_pressure;BME280_temperature;BME280_humidity;BME280_pressure;Samples;Min_cycle;Max_cycle;Signal;HPM_P1;HPM_P2
2021/11/17 02:26:33;;;;;;;78.57;45.75;;;13.50;99.90;;;;;;5034767;28;20410;-56
2021/11/17 02:29:18;;;;;;;72.85;45.15;;;13.40;99.90;;;;;;5036208;28;20037;-57
2021/11/17 02:32:08;;;;;;;76.45;44.88;;;13.50;99.90;;;;;;5053375;28;20041;-57
2021/11/17 02:35:03;;;;;;;77.13;45.80;;;13.50;99.90;;;;;;5033795;28;20487;-57
2021/11/17 02:37:29;;;;;;;73.90;44.53;;;13.40;99.90;;;;;;5033226;28;20033;-56
2021/11/17 02:40:07;;;;;;;79.70;45.35;;;13.50;99.90;;;;;;5036048;28;20022;-57
2021/11/17 02:42:48;;;;;;;78.82;44.97;;;13.40;99.90;;;;;;5048928;28;20105;-57
2021/11/17 02:45:40;;;;;;;73.85;43.15;;;13.50;99.90;;;;;;5033553;28;20040;-56
2021/11/17 02:48:21;;;;;;;78.40;45.38;;;13.50;99.90;;;;;;5032618;28;20038;-57
2021/11/17 02:51:09;;;;;;;74.00;44.35;;;13.40;99.90;;;;;;5034591;28;20040;-57
2021/11/17 02:54:08;;;;;;;71.63;41.72;;;13.20;99.90;;;;;;5033048;28;20034;-58
2021/11/17 02:57:12;;;;;;;66.85;40.88;;;13.20;99.90;;;;;;5033317;28;20041;-57
2021/11/17 02:59:46;;;;;;;74.75;43.83;;;13.20;99.90;;;;;;5003269;28;20124;-58
2021/11/17 03:02:24;;;;;;;71.55;41.58;;;13.20;99.90;;;;;;5037609;28;20017;-56
2021/11/17 03:05:17;;;;;;;72.07;41.83;;;13.30;99.90;;;;;;5045894;28;20026;-57
2021/11/17 03:07:50;;;;;;;75.28;42.28;;;13.30;99.90;;;;;;5033173;28;20486;-56
2021/11/17 03:10:42;;;;;;;71.03;41.35;;;13.30;99.90;;;;;;5041685;28;20028;-56
2021/11/17 03:13:29;;;;;;;72.82;43.28;;;13.50;99.90;;;;;;5036017;28;20483;-58
2021/11/17 03:16:30;;;;;;;68.90;40.25;;;13.40;99.90;;;;;;5048955;28;20036;-57
2021/11/17 03:19:01;;;;;;;67.60;41.70;;;13.30;99.90;;;;;;5052956;28;20033;-57
2021/11/17 03:21:38;;;;;;;74.93;43.70;;;13.30;99.90;;;;;;5033419;28;20433;-56
2021/11/17 03:24:29;;;;;;;72.70;41.25;;;13.20;99.90;;;;;;5047415;28;20033;-57
2021/11/17 03:27:17;;;;;;;76.18;44.30;;;13.30;99.90;;;;;;5052060;28;20057;-56
2021/11/17 03:29:56;;;;;;;74.43;43.47;;;13.30;99.90;;;;;;5051557;28;20049;-57
2021/11/17 03:33:07;;;;;;;71.03;42.17;;;13.20;99.90;;;;;;5052913;28;20052;-58
2021/11/17 03:35:41;;;;;;;71.10;43.97;;;13.20;99.90;;;;;;5041203;28;20027;-57
2021/11/17 03:38:43;;;;;;;77.18;43.92;;;13.20;99.90;;;;;;5032848;28;20383;-57
2021/11/17 03:41:31;;;;;;;77.90;45.97;;;13.20;99.90;;;;;;5048548;28;20029;-57
2021/11/17 03:44:28;;;;;;;79.80;45.47;;;13.30;99.90;;;;;;5052690;28;20029;-59
2021/11/17 03:47:12;;;;;;;80.05;46.08;;;13.20;99.90;;;;;;5032983;28;20044;-57
2021/11/17 03:49:51;;;;;;;73.25;43.95;;;13.20;99.90;;;;;;5048322;28;20029;-58
2021/11/17 03:52:42;;;;;;;68.03;41.70;;;13.10;99.90;;;;;;5050673;28;20112;-57
2021/11/17 03:55:25;;;;;;;69.32;40.90;;;13.10;99.90;;;;;;5043496;28;20025;-58
2021/11/17 03:57:51;;;;;;;73.30;43.17;;;13.10;99.90;;;;;;5036930;28;20512;-57
2021/11/17 04:00:44;;;;;;;72.43;41.35;;;13.30;99.90;;;;;;5046312;28;20064;-56
2021/11/17 04:03:25;;;;;;;74.07;42.08;;;13.30;99.90;;;;;;5029210;28;20052;-57
2021/11/17 04:05:59;;;;;;;71.47;41.60;;;13.30;99.90;;;;;;5044024;28;20514;-63
2021/11/17 04:08:30;;;;;;;70.22;42.20;;;13.30;99.90;;;;;;5049631;28;20435;-58
2021/11/17 04:11:03;;;;;;;76.45;42.88;;;13.20;99.90;;;;;;5042980;28;20032;-58
2021/11/17 04:14:00;;;;;;;74.47;43.10;;;13.20;99.90;;;;;;5053494;28;20021;-58
2021/11/17 04:16:53;;;;;;;75.90;44.90;;;13.20;99.90;;;;;;5055200;28;20028;-57
2021/11/17 04:19:24;;;;;;;73.07;42.92;;;13.20;99.90;;;;;;5055712;28;20112;-57
2021/11/17 04:22:00;;;;;;;63.38;40.30;;;13.30;99.90;;;;;;5048957;28;20044;-58
2021/11/17 04:24:37;;;;;;;76.88;44.65;;;13.30;99.90;;;;;;5052972;28;20544;-58
2021/11/17 04:27:23;;;;;;;73.07;40.50;;;13.30;99.90;;;;;;5055820;28;20025;-58
2021/11/17 04:30:22;;;;;;;70.63;40.13;;;13.20;99.90;;;;;;5051428;28;20037;-58
2021/11/17 04:32:50;;;;;;;67.85;39.13;;;13.10;99.90;;;;;;5036960;28;20021;-58
2021/11/17 04:35:29;;;;;;;69.07;41.47;;;13.10;99.90;;;;;;5040330;28;20035;-58
2021/11/17 04:38:11;;;;;;;73.70;41.55;;;13.20;99.90;;;;;;5052859;28;20045;-58
2021/11/17 04:40:55;;;;;;;72.20;43.47;;;13.10;99.90;;;;;;5045350;28;20033;-58
2021/11/17 04:43:57;;;;;;;77.75;44.95;;;13.20;99.90;;;;;;5054422;28;20083;-58
2021/11/17 04:46:26;;;;;;;68.60;41.78;;;13.20;99.90;;;;;;5041928;28;20052;-58
2021/11/17 04:49:09;;;;;;;72.95;42.58;;;13.40;99.90;;;;;;5055482;28;20120;-58
2021/11/17 04:52:23;;;;;;;76.68;44.70;;;13.30;99.90;;;;;;5054136;28;20036;-59
2021/11/17 04:55:38;;;;;;;72.63;43.85;;;13.20;99.90;;;;;;5043882;28;20045;-57
2021/11/17 04:58:25;;;;;;;76.45;44.22;;;13.20;99.90;;;;;;5034468;28;20555;-58
2021/11/17 05:01:09;;;;;;;76.15;44.53;;;13.20;99.90;;;;;;5035708;28;20033;-59
2021/11/17 05:03:59;;;;;;;77.63;44.85;;;13.30;99.90;;;;;;5034022;28;20026;-58
2021/11/17 05:06:55;;;;;;;67.55;40.50;;;13.30;99.90;;;;;;5035393;28;20037;-58
2021/11/17 05:09:36;;;;;;;75.30;42.42;;;13.30;99.90;;;;;;5043771;28;20036;-59
2021/11/17 05:12:01;;;;;;;75.75;42.20;;;13.30;99.90;;;;;;5048616;28;20104;-58
2021/11/17 05:14:57;;;;;;;69.88;41.63;;;13.30;99.90;;;;;;5035117;28;20104;-58
2021/11/17 05:17:45;;;;;;;70.90;41.42;;;13.30;99.90;;;;;;5034839;28;20434;-58
2021/11/17 05:20:23;;;;;;;69.95;41.92;;;13.30;99.90;;;;;;5042872;28;20064;-58
2021/11/17 05:22:51;;;;;;;70.78;41.30;;;13.30;99.90;;;;;;5035108;28;20029;-58
2021/11/17 05:25:36;;;;;;;73.95;42.60;;;13.40;99.90;;;;;;5038909;28;20403;-56
2021/11/17 05:28:20;;;;;;;74.13;42.25;;;13.40;99.90;;;;;;5034749;28;20023;-59
2021/11/17 05:31:14;;;;;;;73.25;41.42;;;13.50;99.90;;;;;;5042686;28;20057;-57
2021/11/17 05:33:51;;;;;;;68.75;41.42;;;13.60;99.90;;;;;;5034812;28;20104;-58
2021/11/17 05:36:29;;;;;;;64.30;40.92;;;13.40;99.90;;;;;;5047178;28;20029;-58
2021/11/17 05:39:10;;;;;;;67.35;40.60;;;13.40;99.90;;;;;;5053292;28;20493;-58
2021/11/17 05:41:44;;;;;;;65.03;39.05;;;13.40;99.90;;;;;;5037778;28;20029;-58
2021/11/17 05:44:13;;;;;;;;;;;13.30;99.90;;;;;;5035258;28;20033;-57
2021/11/17 05:46:44;;;;;;;67.93;38.63;;;13.30;99.90;;;;;;5048154;28;19909;-57
2021/11/17 05:49:22;;;;;;;64.07;39.97;;;13.30;99.90;;;;;;5053604;28;20041;-58
2021/11/17 05:52:07;;;;;;;67.75;38.97;;;13.30;99.90;;;;;;5053194;28;20029;-57
2021/11/17 05:55:04;;;;;;;59.95;35.70;;;13.30;99.90;;;;;;5054388;28;20035;-58
2021/11/17 05:58:08;;;;;;;64.63;38.45;;;13.30;99.90;;;;;;5034431;28;20364;-58
2021/11/17 06:00:36;;;;;;;66.90;39.47;;;13.30;99.90;;;;;;4990603;28;20105;-58
2021/11/17 06:03:11;;;;;;;67.47;41.15;;;13.30;99.90;;;;;;4973569;28;20027;-57
2021/11/17 06:05:36;;;;;;;70.10;41.95;;;13.40;99.90;;;;;;4978502;28;20046;-58
2021/11/17 06:08:01;;;;;;;76.65;44.47;;;13.30;99.90;;;;;;4992646;28;20034;-57
2021/11/17 06:10:35;;;;;;;69.03;40.72;;;13.40;99.90;;;;;;4991660;28;20496;-57
2021/11/17 06:13:03;;;;;;;68.13;42.88;;;13.40;99.90;;;;;;4992597;28;20046;-57
2021/11/17 06:15:29;;;;;;;61.80;38.55;;;13.20;99.90;;;;;;4991411;28;20104;-57
2021/11/17 06:17:57;;;;;;;65.35;40.10;;;13.20;99.90;;;;;;4992455;28;20039;-57
2021/11/17 06:20:24;;;;;;;72.53;43.10;;;13.40;99.90;;;;;;4983840;28;20539;-56
2021/11/17 06:22:53;;;;;;;68.22;42.35;;;13.40;99.90;;;;;;4992326;28;20085;-58
2021/11/17 06:25:20;;;;;;;70.18;41.83;;;13.40;99.90;;;;;;4990750;28;20047;-57
2021/11/17 06:27:58;;;;;;;61.53;39.58;;;13.30;99.90;;;;;;4987886;28;20030;-57
2021/11/17 06:30:24;;;;;;;71.85;44.42;;;13.30;99.90;;;;;;4996062;28;20050;-57
2021/11/17 06:32:51;;;;;;;73.28;43.17;;;13.40;99.90;;;;;;5032408;28;20036;-58
2021/11/17 06:35:17;;;;;;;74.05;44.33;;;13.50;99.90;;;;;;5032105;28;20041;-57
2021/11/17 06:37:44;;;;;;;73.15;43.80;;;13.60;99.90;;;;;;5033345;28;20029;-58
2021/11/17 06:40:15;;;;;;;76.43;41.38;;;13.70;99.90;;;;;;5034651;28;20029;-58
2021/11/17 06:42:47;;;;;;;72.57;42.70;;;13.60;99.90;;;;;;5053146;28;20074;-55
2021/11/17 06:45:53;;;;;;;67.60;41.33;;;13.50;99.90;;;;;;5050165;28;20126;-58
2021/11/17 06:48:20;;;;;;;68.00;39.03;;;13.40;99.90;;;;;;5038967;28;20479;-58
2021/11/17 06:50:48;;;;;;;67.18;42.35;;;13.50;99.90;;;;;;5046594;28;20471;-58
2021/11/17 06:53:14;;;;;;;69.15;40.92;;;13.50;99.90;;;;;;5044872;28;20025;-58
2021/11/17 06:55:40;;;;;;;67.65;41.15;;;13.60;99.90;;;;;;5051119;28;20367;-58
2021/11/17 06:58:06;;;;;;;63.53;38.78;;;13.40;99.90;;;;;;5050876;28;20036;-57
2021/11/17 07:00:34;;;;;;;63.00;38.05;;;13.50;99.90;;;;;;5047043;28;20053;-58
2021/11/17 07:03:00;;;;;;;68.20;40.35;;;13.60;99.90;;;;;;5031979;28;20033;-57
2021/11/17 07:05:26;;;;;;;67.43;39.75;;;13.60;99.90;;;;;;5033248;28;21751;-58
2021/11/17 07:07:54;;;;;;;67.60;40.38;;;13.60;99.90;;;;;;5033101;28;20034;-58
2021/11/17 07:10:21;;;;;;;66.55;40.65;;;13.60;99.90;;;;;;5049313;28;20060;-57
2021/11/17 07:12:47;;;;;;;65.10;40.28;;;13.60;99.90;;;;;;5031717;28;20080;-58
2021/11/17 07:15:14;;;;;;;76.43;43.97;;;13.50;99.90;;;;;;5033486;28;20037;-58
2021/11/17 07:17:39;;;;;;;65.88;39.40;;;13.70;99.90;;;;;;5034758;28;20471;-58
2021/11/17 07:20:07;;;;;;;70.72;40.67;;;13.70;99.90;;;;;;5032943;28;20034;-57
2021/11/17 07:22:32;;;;;;;63.65;37.60;;;13.80;99.90;;;;;;5049148;28;20029;-58
2021/11/17 07:24:58;;;;;;;65.93;39.47;;;13.80;99.90;;;;;;5052419;28;20511;-58
2021/11/17 07:27:24;;;;;;;63.78;39.08;;;13.70;99.90;;;;;;5051679;28;20036;-58
2021/11/17 07:29:53;;;;;;;61.60;38.75;;;13.70;99.80;;;;;;5052255;28;20040;-57
2021/11/17 07:32:20;;;;;;;65.95;40.17;;;13.80;99.90;;;;;;5050375;28;20029;-58
2021/11/17 07:34:46;;;;;;;65.68;40.13;;;13.90;99.90;;;;;;5043317;28;20028;-55
2021/11/17 07:37:27;;;;;;;68.35;40.95;;;14.00;99.90;;;;;;5047001;28;20056;-58
2021/11/17 07:39:52;;;;;;;64.85;39.42;;;13.70;99.50;;;;;;5049962;28;20037;-57
2021/11/17 07:42:18;;;;;;;57.50;35.90;;;13.70;99.90;;;;;;5051222;28;20033;-59
2021/11/17 07:44:45;;;;;;;65.30;39.40;;;13.60;98.80;;;;;;5050742;28;20119;-58
2021/11/17 07:47:11;;;;;;;65.25;38.03;;;13.70;99.90;;;;;;5041750;28;20036;-53
2021/11/17 07:49:37;;;;;;;65.18;40.80;;;13.80;99.70;;;;;;5053355;28;20025;-58
2021/11/17 07:52:03;;;;;;;68.28;41.03;;;14.00;99.90;;;;;;5046531;28;20061;-59
2021/11/17 07:54:29;;;;;;;63.75;39.25;;;13.90;99.70;;;;;;5036514;28;20035;-58
2021/11/17 07:56:55;;;;;;;70.55;41.63;;;13.90;99.90;;;;;;5036804;28;20116;-58
2021/11/17 07:59:24;;;;;;;73.28;41.65;;;13.90;99.90;;;;;;5045347;28;20045;-58
2021/11/17 08:01:53;;;;;;;66.05;40.60;;;14.20;99.90;;;;;;5047770;28;20033;-57
2021/11/17 08:04:21;;;;;;;70.32;40.97;;;13.90;99.90;;;;;;5056350;28;20043;-59
2021/11/17 08:06:47;;;;;;;69.35;41.97;;;14.10;99.90;;;;;;5055390;28;20033;-57
2021/11/17 08:09:14;;;;;;;68.07;42.08;;;14.20;99.90;;;;;;5056021;28;20138;-57
2021/11/17 08:11:41;;;;;;;80.18;44.53;;;14.10;99.80;;;;;;5047835;28;20471;-56
2021/11/17 08:14:08;;;;;;;76.75;43.55;;;14.10;99.90;;;;;;5055995;28;20029;-60
2021/11/17 08:16:34;;;;;;;69.55;41.33;;;14.10;99.90;;;;;;5054995;28;20162;-56
2021/11/17 08:18:59;;;;;;;64.35;40.35;;;14.00;99.90;;;;;;5058180;28;20115;-58
2021/11/17 08:21:25;;;;;;;68.03;41.08;;;14.10;99.90;;;;;;5053544;28;20167;-53
2021/11/17 08:23:50;;;;;;;69.35;42.40;;;14.10;99.90;;;;;;5055014;28;20415;-61
2021/11/17 08:26:21;;;;;;;68.47;39.83;;;13.90;99.20;;;;;;5053170;28;20475;-56
2021/11/17 08:28:47;;;;;;;64.90;39.67;;;13.90;97.90;;;;;;5055527;28;20582;-57
2021/11/17 08:31:13;;;;;;;64.78;40.63;;;14.10;99.70;;;;;;5044277;28;20068;-57
2021/11/17 08:33:41;;;;;;;65.63;39.42;;;14.00;98.70;;;;;;5054415;28;20067;-56
2021/11/17 08:36:07;;;;;;;69.10;40.58;;;14.10;99.90;;;;;;5053553;28;20075;-58
2021/11/17 08:38:33;;;;;;;71.15;41.90;;;14.00;99.90;;;;;;5055499;28;20383;-58
2021/11/17 08:41:05;;;;;;;69.25;42.63;;;14.10;99.90;;;;;;5051362;28;20026;-57
2021/11/17 08:43:32;;;;;;;77.85;44.17;;;14.10;99.80;;;;;;5052006;28;20065;-57
2021/11/17 08:45:58;;;;;;;71.30;42.42;;;14.10;99.90;;;;;;5054615;28;20064;-58
2021/11/17 08:48:27;;;;;;;78.72;44.85;;;14.20;99.90;;;;;;5054167;28;20021;-56
2021/11/17 08:50:55;;;;;;;71.90;43.92;;;14.20;99.90;;;;;;5044754;28;20479;-57
2021/11/17 08:53:22;;;;;;;71.05;42.78;;;14.20;99.30;;;;;;5040187;28;20033;-57
2021/11/17 08:55:48;;;;;;;74.93;44.00;;;14.20;97.70;;;;;;5035030;28;20432;-58
2021/11/17 08:58:15;;;;;;;68.85;42.58;;;14.20;99.60;;;;;;5053935;28;20025;-54
2021/11/17 09:00:43;;;;;;;73.53;44.38;;;14.30;99.40;;;;;;5045307;28;20041;-58
2021/11/17 09:03:09;;;;;;;71.25;42.45;;;14.50;99.10;;;;;;5035506;28;20028;-58
2021/11/17 09:05:39;;;;;;;77.85;43.35;;;14.40;98.90;;;;;;5035174;28;20041;-58
2021/11/17 09:08:05;;;;;;;71.15;45.90;;;14.40;99.00;;;;;;5053552;28;20070;-58
2021/11/17 09:10:37;;;;;;;71.15;44.78;;;14.50;99.30;;;;;;5053403;28;20036;-56
2021/11/17 09:13:04;;;;;;;78.47;44.40;;;14.40;99.10;;;;;;5035748;28;20037;-56
2021/11/17 09:15:33;;;;;;;74.15;44.03;;;14.40;98.60;;;;;;5047273;28;20396;-58
2021/11/17 09:18:00;;;;;;;72.55;44.50;;;14.50;98.80;;;;;;5052303;28;20025;-58
2021/11/17 09:20:27;;;;;;;78.68;46.80;;;14.50;98.80;;;;;;5054772;28;20033;-57
2021/11/17 09:22:54;;;;;;;69.60;43.92;;;14.50;99.00;;;;;;5053856;28;20056;-58
2021/11/17 09:25:23;;;;;;;74.82;46.28;;;14.50;98.80;;;;;;5040827;28;20534;-58
2021/11/17 09:27:49;;;;;;;76.75;44.38;;;14.50;97.70;;;;;;5038312;28;20048;-57
2021/11/17 09:30:19;;;;;;;72.15;43.63;;;14.50;98.20;;;;;;5044534;28;20130;-57
2021/11/17 09:32:46;;;;;;;68.25;42.58;;;14.50;98.30;;;;;;5048741;28;20178;-57
2021/11/17 09:35:13;;;;;;;75.00;46.97;;;14.70;98.50;;;;;;5053811;28;20029;-58
2021/11/17 09:37:42;;;;;;;76.68;46.55;;;14.50;97.80;;;;;;5045518;28;20021;-56
2021/11/17 09:40:11;;;;;;;75.45;46.75;;;14.60;97.90;;;;;;5054181;28;20124;-53
2021/11/17 09:42:37;;;;;;;70.82;44.58;;;14.40;97.40;;;;;;5053686;28;20021;-56
2021/11/17 09:45:06;;;;;;;77.65;45.53;;;14.50;97.90;;;;;;5054408;28;20044;-57
2021/11/17 09:47:34;;;;;;;76.50;45.33;;;14.70;97.20;;;;;;5042230;28;20021;-56
2021/11/17 09:50:12;;;;;;;72.82;45.92;;;14.70;97.70;;;;;;5049754;28;20112;-58
2021/11/17 09:52:55;;;;;;;78.18;45.80;;;14.90;97.80;;;;;;5039286;28;20032;-58
2021/11/17 09:55:21;;;;;;;78.78;46.60;;;14.90;96.80;;;;;;5033725;28;20080;-56
2021/11/17 09:57:50;;;;;;;70.18;44.67;;;15.00;97.80;;;;;;5044763;28;20379;-58
2021/11/17 10:00:28;;;;;;;71.45;42.00;;;14.90;98.10;;;;;;5032771;28;20376;-55
2021/11/17 10:03:06;;;;;;;64.13;40.05;;;14.90;98.60;;;;;;5034291;28;20021;-57
2021/11/17 10:11:57;;;;;;;68.85;41.40;;;15.10;99.50;;;;;;5033482;28;20041;-56
2021/11/17 10:14:35;;;;;;;63.65;37.92;;;15.20;99.50;;;;;;5034096;28;20099;-57
2021/11/17 10:17:02;;;;;;;68.03;40.40;;;15.10;99.10;;;;;;5044990;28;20059;-54
2021/11/17 10:19:32;;;;;;;59.95;37.97;;;15.00;99.10;;;;;;5052390;28;20505;-56
2021/11/17 10:22:09;;;;;;;63.85;40.90;;;14.80;98.20;;;;;;5051848;28;20017;-57
2021/11/17 10:24:50;;;;;;;57.42;34.50;;;14.80;98.50;;;;;;5053439;28;20051;-55
2021/11/17 10:27:28;;;;;;;60.42;37.70;;;14.80;98.40;;;;;;5044105;28;20491;-57
2021/11/17 10:30:00;;;;;;;54.50;36.53;;;14.90;99.80;;;;;;5033399;28;20057;-57
2021/11/17 10:32:43;;;;;;;56.17;35.85;;;14.80;99.10;;;;;;5034844;28;20029;-58
2021/11/17 10:35:24;;;;;;;56.65;36.30;;;14.90;99.00;;;;;;5034839;28;20037;-56
2021/11/17 10:38:03;;;;;;;55.08;36.20;;;15.10;98.50;;;;;;5043726;28;20037;-55
2021/11/17 10:40:32;;;;;;;59.38;37.30;;;15.10;97.50;;;;;;5053221;28;20024;-57
2021/11/17 10:43:04;;;;;;;56.53;36.80;;;15.10;96.50;;;;;;5050875;28;20040;-58
2021/11/17 10:48:59;;;;;;;59.75;38.60;;;15.30;95.30;;;;;;5050586;28;20083;-58
2021/11/17 10:51:34;;;;;;;49.23;33.67;;;15.50;97.20;;;;;;5046496;28;20025;-59
2021/11/17 10:54:11;;;;;;;51.92;35.85;;;15.50;96.10;;;;;;5051003;28;20369;-53
2021/11/17 10:56:38;;;;;;;52.90;33.92;;;15.50;96.90;;;;;;5052452;28;20033;-59
2021/11/17 10:59:06;;;;;;;51.25;32.10;;;15.40;96.20;;;;;;5052207;28;20029;-57
2021/11/17 11:01:41;;;;;;;49.10;32.20;;;15.50;96.00;;;;;;5051718;28;21803;-56
2021/11/17 11:04:24;;;;;;;50.45;32.47;;;15.50;96.00;;;;;;5050437;28;20139;-57
2021/11/17 11:06:53;;;;;;;47.10;30.98;;;15.60;94.80;;;;;;5051030;28;20375;-59
2021/11/17 11:09:36;;;;;;;46.97;29.92;;;15.60;95.80;;;;;;5052841;28;20020;-57
2021/11/17 11:12:04;;;;;;;41.83;29.08;;;15.90;95.10;;;;;;5050795;28;20033;-57
2021/11/17 11:14:33;;;;;;;36.90;25.60;;;15.70;95.90;;;;;;5049330;28;20021;-58
2021/11/17 11:17:07;;;;;;;38.05;29.02;;;15.60;95.10;;;;;;5045199;28;20121;-57
2021/11/17 11:19:34;;;;;;;45.00;29.63;;;15.70;95.70;;;;;;5040557;28;20025;-58
2021/11/17 11:22:02;;;;;;;43.75;28.75;;;15.70;95.50;;;;;;5051586;28;20056;-58
2021/11/17 11:24:39;;;;;;;41.67;28.98;;;15.70;95.80;;;;;;5050011;28;20037;-59
2021/11/17 11:27:04;;;;;;;43.97;30.73;;;15.70;94.90;;;;;;5039421;28;20060;-55
2021/11/17 11:29:39;;;;;;;42.15;26.73;;;15.80;94.90;;;;;;5052276;28;20083;-58
2021/11/17 11:32:28;;;;;;;39.10;25.23;;;15.60;94.40;;;;;;5039447;28;20386;-58
2021/11/17 11:35:00;;;;;;;43.67;28.40;;;15.60;93.90;;;;;;5045782;28;20036;-58
2021/11/17 11:37:25;;;;;;;37.22;27.08;;;15.60;94.40;;;;;;5052221;28;20025;-57
2021/11/17 11:39:52;;;;;;;42.13;28.90;;;15.70;94.30;;;;;;5039040;28;20033;-57
2021/11/17 11:42:24;;;;;;;43.10;29.05;;;15.70;94.70;;;;;;5032637;28;20056;-58
2021/11/17 11:45:07;;;;;;;42.42;29.77;;;15.80;95.10;;;;;;5049625;28;20390;-58
2021/11/17 11:47:52;;;;;;;46.42;30.60;;;15.50;94.10;;;;;;5049364;28;20112;-58
2021/11/17 11:50:33;;;;;;;43.20;29.30;;;15.60;94.00;;;;;;5050301;28;20021;-58
2021/11/17 11:53:13;;;;;;;43.97;29.70;;;15.90;94.60;;;;;;5040017;28;20033;-59
2021/11/17 11:55:52;;;;;;;41.38;27.70;;;16.00;94.00;;;;;;5048414;28;20030;-57
2021/11/17 11:58:24;;;;;;;42.53;28.83;;;15.90;93.60;;;;;;5052533;28;20040;-58
2021/11/17 12:00:59;;;;;;;40.60;28.33;;;16.10;94.60;;;;;;5045728;28;20103;-57
2021/11/17 12:03:26;;;;;;;;;;;16.10;94.10;;;;;;5049043;28;20029;-58
2021/11/17 12:06:01;;;;;;;35.83;25.77;;;16.20;92.70;;;;;;5051188;28;19916;-57
2021/11/17 12:08:31;;;;;;;40.72;27.70;;;16.00;94.20;;;;;;5051458;28;20024;-58
2021/11/17 12:11:06;;;;;;;41.35;27.20;;;15.90;93.60;;;;;;5051445;28;20028;-57
2021/11/17 12:13:43;;;;;;;46.75;29.20;;;15.80;93.20;;;;;;5052213;28;20033;-58
2021/11/17 12:16:14;;;;;;;42.75;29.85;;;15.90;95.10;;;;;;5047831;28;20372;-58
2021/11/17 12:18:53;;;;;;;41.47;29.38;;;16.20;94.30;;;;;;5047345;28;20696;-55
2021/11/17 12:21:22;;;;;;;38.72;27.40;;;;;;;;;;5050195;28;20086;-57
2021/11/17 12:24:06;;;;;;;37.53;26.75;;;16.10;87.80;;;;;;5052188;28;20021;-59
2021/11/17 12:26:34;;;;;;;39.95;27.25;;;16.20;85.60;;;;;;5050412;28;20129;-58
2021/11/17 12:29:03;;;;;;;37.20;25.92;;;16.20;90.50;;;;;;5049367;28;20100;-57
2021/11/17 12:31:36;;;;;;;39.38;26.70;;;16.20;85.60;;;;;;5051638;28;20056;-58
2021/11/17 12:34:14;;;;;;;38.17;27.73;;;16.20;89.90;;;;;;5045832;28;20422;-58
2021/11/17 12:36:58;;;;;;;38.22;26.63;;;16.10;88.10;;;;;;5054974;28;20474;-58
2021/11/17 12:39:48;;;;;;;37.30;24.95;;;16.10;88.40;;;;;;5053567;28;20029;-57
2021/11/17 12:42:14;;;;;;;37.10;25.08;;;16.20;88.60;;;;;;5055416;28;20051;-57
2021/11/17 12:44:43;;;;;;;38.10;27.63;;;16.30;85.90;;;;;;5053688;28;20375;-55
2021/11/17 12:47:20;;;;;;;38.20;26.50;;;16.40;89.00;;;;;;5054473;28;20060;-56
2021/11/17 12:49:51;;;;;;;39.20;25.38;;;16.40;86.50;;;;;;5054630;28;20071;-57
2021/11/17 12:52:53;;;;;;;35.05;24.35;;;16.50;87.80;;;;;;5055096;28;20036;-57
2021/11/17 12:55:46;;;;;;;35.13;23.27;;;16.50;83.70;;;;;;5034091;28;20453;-57
2021/11/17 12:58:34;;;;;;;33.78;23.65;;;16.60;85.20;;;;;;5040908;28;20036;-58
2021/11/17 13:01:33;;;;;;;33.47;23.52;;;16.70;87.50;;;;;;5055314;28;20087;-58
2021/11/17 13:04:14;;;;;;;33.92;23.70;;;16.80;85.30;;;;;;5053138;28;20025;-58
2021/11/17 13:06:39;;;;;;;34.53;24.38;;;16.50;84.50;;;;;;5055135;28;20331;-57
2021/11/17 13:09:31;;;;;;;33.63;23.67;;;16.40;84.90;;;;;;5053863;28;20040;-55
2021/11/17 13:12:10;;;;;;;35.50;23.65;;;16.60;87.80;;;;;;5053109;28;20427;-56
2021/11/17 13:14:45;;;;;;;27.80;19.58;;;16.80;87.50;;;;;;5054053;28;20032;-59
2021/11/17 13:17:24;;;;;;;28.60;20.27;;;16.50;84.60;;;;;;5054791;28;20036;-58
2021/11/17 13:19:52;;;;;;;32.60;22.85;;;16.50;88.00;;;;;;5037336;28;20467;-57
2021/11/17 13:22:35;;;;;;;28.80;20.33;;;16.60;88.20;;;;;;5033707;28;20065;-53
2021/11/17 13:25:13;;;;;;;27.27;20.33;;;16.50;87.00;;;;;;5054486;28;20036;-55
2021/11/17 13:28:03;;;;;;;30.25;22.23;;;16.40;84.40;;;;;;5053874;28;20075;-56
2021/11/17 13:30:32;;;;;;;31.58;23.05;;;16.10;85.20;;;;;;5047634;28;20049;-55
2021/11/17 13:33:15;;;;;;;31.83;22.85;;;16.20;89.00;;;;;;5053541;28;20029;-57
2021/11/17 13:35:41;;;;;;;29.65;21.60;;;16.30;88.80;;;;;;5036301;28;20415;-54
2021/11/17 13:38:22;;;;;;;28.75;22.15;;;16.00;86.80;;;;;;5043809;28;20089;-55
2021/11/17 13:40:54;;;;;;;31.17;22.48;;;16.10;86.30;;;;;;5053435;28;20487;-58
2021/11/17 13:43:21;;;;;;;33.78;22.25;;;16.10;86.70;;;;;;5049252;28;20060;-56
2021/11/17 13:45:50;;;;;;;31.52;22.77;;;16.10;88.90;;;;;;5034302;28;20029;-58
2021/11/17 13:48:19;;;;;;;30.15;21.35;;;16.20;89.00;;;;;;5040463;28;20025;-57
2021/11/17 13:50:47;;;;;;;29.25;22.17;;;16.30;88.10;;;;;;5047300;28;20492;-53
2021/11/17 13:53:14;;;;;;;30.75;22.52;;;16.20;87.30;;;;;;5036925;28;20467;-56
2021/11/17 13:56:04;;;;;;;28.58;21.90;;;16.20;88.50;;;;;;5048541;28;20101;-55
2021/11/17 13:58:31;;;;;;;34.17;23.50;;;16.30;87.30;;;;;;5038084;28;20056;-53
2021/11/17 14:00:56;;;;;;;36.03;22.65;;;16.30;89.60;;;;;;5054276;28;20036;-56
2021/11/17 14:03:22;;;;;;;30.13;22.27;;;16.20;89.30;;;;;;5065318;28;20030;-57
2021/11/17 14:05:49;;;;;;;35.28;22.27;;;16.20;89.50;;;;;;5052599;28;20041;-60
2021/11/17 14:08:15;;;;;;;30.83;21.75;;;16.10;90.00;;;;;;5053187;28;20099;-58
2021/11/17 14:10:41;;;;;;;32.60;23.95;;;16.10;90.00;;;;;;5046925;28;20126;-53
2021/11/17 14:13:07;;;;;;;32.53;23.90;;;16.10;90.20;;;;;;5052909;28;20108;-58
2021/11/17 14:15:33;;;;;;;33.22;23.02;;;16.20;88.10;;;;;;5053642;28;20040;-56
2021/11/17 14:18:00;;;;;;;29.20;22.33;;;16.10;90.10;;;;;;5051989;28;20013;-59
2021/11/17 14:20:27;;;;;;;32.70;22.80;;;16.10;88.60;;;;;;5052444;28;20029;-54
2021/11/17 14:22:53;;;;;;;33.38;24.35;;;16.30;89.00;;;;;;5044769;28;20028;-59
2021/11/17 14:25:21;;;;;;;34.92;25.02;;;16.30;87.00;;;;;;5048496;28;20440;-56
2021/11/17 14:27:53;;;;;;;33.47;24.73;;;16.40;88.40;;;;;;5046421;28;20017;-58
2021/11/17 14:30:33;;;;;;;34.80;25.77;;;16.30;86.90;;;;;;5043767;28;20494;-59
2021/11/17 14:32:59;;;;;;;35.25;27.02;;;16.30;86.30;;;;;;5046162;28;20394;-55
2021/11/17 14:35:27;;;;;;;38.65;25.83;;;16.30;89.10;;;;;;5046507;28;20044;-55
2021/11/17 14:37:55;;;;;;;34.60;26.20;;;16.20;86.60;;;;;;5043974;28;20025;-53
2021/11/17 14:40:21;;;;;;;37.15;25.38;;;16.30;88.90;;;;;;5045017;28;20053;-55
2021/11/17 14:42:48;;;;;;;34.15;26.00;;;16.10;88.90;;;;;;5045567;28;20030;-56
2021/11/17 14:45:19;;;;;;;36.67;25.80;;;16.20;87.80;;;;;;5045055;28;20483;-57
2021/11/17 14:47:45;;;;;;;35.92;26.83;;;16.10;87.90;;;;;;5045960;28;20021;-58
2021/11/17 14:50:12;;;;;;;37.35;26.05;;;16.10;87.90;;;;;;5043325;28;20143;-55
2021/11/17 14:52:39;;;;;;;43.83;28.10;;;16.20;86.60;;;;;;5047183;28;20029;-57
2021/11/17 14:55:08;;;;;;;39.92;28.48;;;16.20;88.60;;;;;;5041405;28;20048;-56
2021/11/17 14:57:36;;;;;;;38.92;28.27;;;16.00;88.50;;;;;;5042912;28;20100;-56
2021/11/17 15:00:06;;;;;;;33.22;24.35;;;16.10;89.90;;;;;;5047810;28;20017;-57
2021/11/17 15:02:31;;;;;;;37.47;26.48;;;16.00;87.20;;;;;;5043694;28;20057;-54
2021/11/17 15:04:57;;;;;;;39.55;28.58;;;16.00;89.70;;;;;;5046261;28;20163;-57
2021/11/17 15:07:23;;;;;;;39.38;28.13;;;16.10;89.30;;;;;;5045269;28;20036;-56
2021/11/17 15:09:48;;;;;;;37.40;25.90;;;16.00;88.80;;;;;;5042813;28;20025;-57
2021/11/17 15:12:18;;;;;;;40.40;28.48;;;15.90;88.30;;;;;;5045319;28;20039;-55
2021/11/17 15:14:44;;;;;;;41.42;27.42;;;15.90;90.20;;;;;;5044088;28;20060;-57
2021/11/17 15:17:11;;;;;;;40.42;28.40;;;15.80;90.30;;;;;;5045150;28;20039;-54
2021/11/17 15:19:37;;;;;;;38.47;28.67;;;15.80;88.20;;;;;;5043265;28;20021;-55
2021/11/17 15:22:03;;;;;;;44.97;30.95;;;15.80;90.50;;;;;;5041445;28;20071;-53
2021/11/17 15:24:30;;;;;;;42.65;28.65;;;15.70;90.60;;;;;;5046155;28;20057;-56
2021/11/17 15:27:01;;;;;;;40.38;28.58;;;15.50;90.40;;;;;;5045519;28;20495;-56
2021/11/17 15:29:27;;;;;;;38.30;27.13;;;15.80;89.00;;;;;;5043238;28;20452;-55
2021/11/17 15:31:53;;;;;;;37.10;27.00;;;15.60;90.30;;;;;;5045556;28;20087;-55
2021/11/17 15:34:19;;;;;;;38.25;27.38;;;15.80;90.50;;;;;;5042064;28;20032;-56
2021/11/17 15:36:44;;;;;;;40.65;27.88;;;15.80;90.60;;;;;;5043508;28;20040;-56
2021/11/17 15:39:10;;;;;;;39.80;28.23;;;15.60;90.30;;;;;;5046473;28;20597;-57